createdAt,value
2018-06-08T00:01:39.461Z,17.30
2018-06-08T00:04:08.129Z,17.30
2018-06-08T00:06:36.823Z,17.20
2018-06-08T00:09:08.293Z,17.20
2018-06-08T00:11:36.864Z,17.10
2018-06-08T00:14:05.528Z,17.10
2018-06-08T00:16:34.257Z,17.00
2018-06-08T00:19:02.948Z,17.00
2018-06-08T00:21:31.616Z,17.00
2018-06-08T00:24:00.706Z,17.00
2018-06-08T00:26:29.609Z,17.00
2018-06-08T00:28:58.402Z,17.00
2018-06-08T00:31:27.612Z,16.90
2018-06-08T00:33:56.890Z,16.90
2018-06-08T00:36:25.539Z,16.80
2018-06-08T00:38:54.198Z,16.70
2018-06-08T00:43:51.143Z,16.50
2018-06-08T00:46:20.038Z,16.50
2018-06-08T00:48:48.714Z,16.40
2018-06-08T00:51:17.429Z,16.40
2018-06-08T00:53:46.093Z,16.30
2018-06-08T00:56:25.893Z,16.30
2018-06-08T00:58:54.607Z,16.20
2018-06-08T01:01:23.265Z,16.20
2018-06-08T01:03:52.097Z,16.10
2018-06-08T01:06:20.840Z,16.00
2018-06-08T01:08:49.510Z,16.00
2018-06-08T01:11:18.206Z,16.00
2018-06-08T01:13:46.862Z,16.00
2018-06-08T01:16:15.555Z,16.00
2018-06-08T01:18:44.348Z,15.90
2018-06-08T01:21:13.044Z,16.00
2018-06-08T01:23:41.747Z,15.90
2018-06-08T01:26:10.432Z,16.00
2018-06-08T01:28:38.990Z,16.00
2018-06-08T01:31:07.555Z,16.00
2018-06-08T01:33:36.131Z,16.00
2018-06-08T01:36:04.749Z,15.90
2018-06-08T01:38:33.331Z,15.90
2018-06-08T01:41:01.987Z,15.90
2018-06-08T01:43:30.680Z,15.80
2018-06-08T01:45:59.229Z,15.80
2018-06-08T01:48:27.873Z,15.70
2018-06-08T01:50:56.466Z,15.70
2018-06-08T01:53:25.040Z,15.70
2018-06-08T01:55:53.702Z,15.60
2018-06-08T01:58:22.296Z,15.60
2018-06-08T02:00:50.887Z,15.60
2018-06-08T02:03:19.498Z,15.60
2018-06-08T02:05:48.194Z,15.50
2018-06-08T02:08:16.835Z,15.50
2018-06-08T02:10:45.560Z,15.50
2018-06-08T02:13:14.178Z,15.50
2018-06-08T02:15:42.750Z,15.40
2018-06-08T02:18:11.368Z,15.40
2018-06-08T02:20:40.100Z,15.30
2018-06-08T02:23:08.772Z,15.30
2018-06-08T02:25:37.339Z,15.30
2018-06-08T02:28:05.917Z,15.30
2018-06-08T02:30:34.484Z,15.30
2018-06-08T02:33:03.157Z,15.20
2018-06-08T02:35:31.826Z,15.20
2018-06-08T02:38:00.422Z,15.20
2018-06-08T02:40:29.085Z,15.20
2018-06-08T02:42:57.652Z,15.20
2018-06-08T02:45:26.226Z,15.20
2018-06-08T02:47:54.881Z,15.20
2018-06-08T02:50:23.525Z,15.20
2018-06-08T02:52:52.222Z,15.10
2018-06-08T02:55:20.805Z,15.10
2018-06-08T02:57:49.413Z,15.00
2018-06-08T03:00:17.970Z,15.00
2018-06-08T03:02:46.585Z,15.10
2018-06-08T03:05:15.266Z,15.10
2018-06-08T03:07:43.928Z,15.10
2018-06-08T03:10:12.557Z,15.00
2018-06-08T03:12:41.180Z,15.00
2018-06-08T03:15:09.830Z,15.00
2018-06-08T03:17:38.424Z,14.90
2018-06-08T03:20:07.051Z,14.90
2018-06-08T03:22:35.695Z,14.90
2018-06-08T03:25:04.282Z,14.90
2018-06-08T03:27:32.875Z,14.90
2018-06-08T03:30:01.532Z,14.80
2018-06-08T03:32:30.153Z,14.80
2018-06-08T03:34:58.665Z,14.80
2018-06-08T03:37:27.305Z,14.90
2018-06-08T03:39:55.841Z,14.80
2018-06-08T03:42:24.452Z,14.80
2018-06-08T03:44:53.089Z,14.80
2018-06-08T03:47:21.709Z,14.80
2018-06-08T03:49:50.283Z,14.90
2018-06-08T03:52:18.868Z,14.90
2018-06-08T03:54:47.486Z,14.80
2018-06-08T03:57:16.131Z,14.90
2018-06-08T03:59:44.766Z,14.90
2018-06-08T04:02:13.401Z,14.90
2018-06-08T04:04:42.034Z,15.00
2018-06-08T04:07:10.566Z,15.00
2018-06-08T04:09:39.184Z,15.10
2018-06-08T04:12:07.885Z,15.10
2018-06-08T04:14:36.482Z,15.20
2018-06-08T04:17:05.077Z,15.20
2018-06-08T04:19:33.749Z,15.30
2018-06-08T04:22:02.437Z,15.40
2018-06-08T04:24:30.983Z,15.40
2018-06-08T04:26:59.685Z,15.50
2018-06-08T04:29:28.322Z,15.60
2018-06-08T04:31:57.587Z,15.60
2018-06-08T04:34:26.613Z,15.70
2018-06-08T04:36:55.144Z,15.80
2018-06-08T04:39:24.217Z,15.80
2018-06-08T04:41:52.778Z,15.90
2018-06-08T04:44:21.400Z,16.10
2018-06-08T04:46:50.085Z,16.20
2018-06-08T04:49:18.637Z,16.30
2018-06-08T04:51:47.858Z,16.40
2018-06-08T04:54:16.539Z,16.50
2018-06-08T04:56:45.215Z,16.60
2018-06-08T04:59:13.942Z,16.70
2018-06-08T05:01:42.719Z,16.80
2018-06-08T05:04:11.787Z,16.90
2018-06-08T05:06:40.435Z,17.00
2018-06-08T05:09:09.079Z,17.10
2018-06-08T05:11:37.726Z,17.20
2018-06-08T05:14:06.344Z,17.30
2018-06-08T05:16:34.889Z,17.40
2018-06-08T05:19:03.505Z,17.60
2018-06-08T05:21:32.296Z,17.70
2018-06-08T05:24:01.058Z,17.80
2018-06-08T05:26:29.744Z,17.90
2018-06-08T05:28:58.456Z,18.00
2018-06-08T05:31:27.087Z,18.00
2018-06-08T05:33:55.657Z,18.10
2018-06-08T05:36:24.269Z,18.30
2018-06-08T05:38:52.822Z,18.40
2018-06-08T05:41:21.443Z,18.40
2018-06-08T05:43:50.073Z,18.30
2018-06-08T05:46:18.716Z,18.30
2018-06-08T05:48:47.269Z,18.40
2018-06-08T05:51:15.915Z,18.50
2018-06-08T05:53:44.471Z,18.60
2018-06-08T05:56:13.127Z,18.50
2018-06-08T05:58:41.718Z,18.60
2018-06-08T06:01:10.429Z,18.60
2018-06-08T06:03:38.986Z,18.70
2018-06-08T06:06:07.569Z,18.70
2018-06-08T06:08:36.298Z,18.80
2018-06-08T06:11:04.906Z,18.90
2018-06-08T06:13:33.546Z,19.00
2018-06-08T06:16:02.187Z,19.10
2018-06-08T06:18:30.824Z,19.30
2018-06-08T06:21:00.051Z,19.50
2018-06-08T06:23:28.764Z,19.50
2018-06-08T06:25:57.442Z,19.60
2018-06-08T06:28:26.209Z,19.60
2018-06-08T06:30:54.929Z,19.80
2018-06-08T06:33:23.597Z,19.90
2018-06-08T06:35:52.277Z,20.10
2018-06-08T06:38:20.978Z,20.20
2018-06-08T06:40:49.621Z,20.20
2018-06-08T06:43:18.269Z,20.20
2018-06-08T06:45:46.933Z,20.20
2018-06-08T06:48:15.622Z,20.30
2018-06-08T06:50:44.266Z,20.50
2018-06-08T06:53:12.903Z,20.70
2018-06-08T06:55:41.653Z,20.90
2018-06-08T06:58:10.489Z,21.10
2018-06-08T07:00:39.178Z,21.40
2018-06-08T07:03:07.918Z,21.70
2018-06-08T07:05:36.834Z,21.80
2018-06-08T07:08:05.624Z,22.00
2018-06-08T07:10:34.274Z,22.30
2018-06-08T07:13:03.102Z,22.60
2018-06-08T07:15:39.381Z,22.90
2018-06-08T07:18:08.549Z,23.30
2018-06-08T07:20:38.416Z,23.70
2018-06-08T07:23:07.318Z,23.80
2018-06-08T07:25:36.028Z,24.20
2018-06-08T07:28:04.781Z,24.40
2018-06-08T07:30:33.376Z,24.70
2018-06-08T07:41:42.796Z,25.70
2018-06-08T07:44:11.561Z,25.90
2018-06-08T07:46:40.218Z,26.00
2018-06-08T07:49:08.856Z,26.40
2018-06-08T07:51:37.496Z,26.80
2018-06-08T07:54:06.177Z,27.10
2018-06-08T07:56:34.825Z,27.50
2018-06-08T07:59:03.566Z,27.90
2018-06-08T08:01:32.240Z,28.40
2018-06-08T08:04:00.986Z,28.80
2018-06-08T08:06:29.697Z,28.80
2018-06-08T08:08:58.405Z,28.90
2018-06-08T08:11:27.032Z,29.10
2018-06-08T08:13:55.655Z,29.20
2018-06-08T08:16:24.325Z,29.30
2018-06-08T08:18:53.008Z,29.30
2018-06-08T08:21:21.577Z,29.30
2018-06-08T08:23:50.205Z,29.30
2018-06-08T08:26:18.885Z,29.50
2018-06-08T08:28:47.555Z,29.80
2018-06-08T08:31:16.238Z,30.10
2018-06-08T08:33:44.911Z,30.30
2018-06-08T08:36:13.549Z,30.30
2018-06-08T08:38:42.121Z,30.20
2018-06-08T08:41:10.901Z,29.70
2018-06-08T08:43:39.508Z,28.80
2018-06-08T08:46:08.160Z,28.00
2018-06-08T08:48:36.841Z,27.90
2018-06-08T08:51:05.490Z,28.50
2018-06-08T08:53:34.158Z,29.30
2018-06-08T08:56:02.814Z,29.50
2018-06-08T08:58:31.451Z,28.80
2018-06-08T09:01:00.026Z,28.60
2018-06-08T09:03:28.873Z,28.50
2018-06-08T09:05:57.521Z,28.00
2018-06-08T09:08:26.190Z,27.50
2018-06-08T09:10:54.874Z,27.70
2018-06-08T09:13:23.470Z,27.80
2018-06-08T09:15:52.073Z,28.00
2018-06-08T09:18:20.725Z,28.40
2018-06-08T09:20:49.367Z,28.40
2018-06-08T09:23:17.965Z,28.40
2018-06-08T09:25:46.501Z,28.30
2018-06-08T09:28:15.215Z,28.50
2018-06-08T09:30:43.786Z,29.00
2018-06-08T09:33:12.497Z,29.20
2018-06-08T09:35:41.048Z,29.40
2018-06-08T09:38:09.541Z,29.90
2018-06-08T09:40:38.112Z,30.60
2018-06-08T09:43:06.629Z,30.90
2018-06-08T09:45:35.280Z,31.30
2018-06-08T09:48:04.026Z,30.90
2018-06-08T09:50:32.697Z,30.10
2018-06-08T09:53:01.268Z,29.20
2018-06-08T09:55:29.856Z,28.10
2018-06-08T10:00:32.131Z,27.00
2018-06-08T10:03:00.688Z,27.40
2018-06-08T10:05:29.328Z,27.80
2018-06-08T10:07:57.981Z,28.50
2018-06-08T10:10:26.589Z,29.40
2018-06-08T10:12:55.241Z,30.30
2018-06-08T10:15:23.877Z,31.00
2018-06-08T10:17:52.564Z,31.40
2018-06-08T10:20:21.460Z,32.00
2018-06-08T10:22:50.062Z,32.80
2018-06-08T10:25:18.780Z,33.60
2018-06-08T10:27:47.415Z,34.20
2018-06-08T10:30:16.061Z,33.70
2018-06-08T10:32:44.754Z,32.90
2018-06-08T10:35:28.103Z,32.30
2018-06-08T10:37:56.797Z,31.80
2018-06-08T10:40:25.487Z,32.00
2018-06-08T10:42:54.282Z,32.40
2018-06-08T10:45:23.333Z,32.70
2018-06-08T10:47:51.991Z,32.90
2018-06-08T10:50:20.661Z,33.20
2018-06-08T10:52:49.382Z,33.90
2018-06-08T10:55:18.045Z,34.50
2018-06-08T10:57:46.698Z,35.20
2018-06-08T11:00:15.332Z,35.80
2018-06-08T11:02:44.001Z,36.20
2018-06-08T11:05:12.575Z,36.10
2018-06-08T11:10:09.558Z,35.40
2018-06-08T11:12:38.174Z,34.70
2018-06-08T11:15:06.929Z,34.00
2018-06-08T11:17:35.602Z,33.30
2018-06-08T11:20:04.331Z,32.60
2018-06-08T11:22:32.913Z,31.90
2018-06-08T11:25:01.573Z,31.60
2018-06-08T11:27:30.246Z,31.50
2018-06-08T11:29:58.866Z,31.80
2018-06-08T11:32:27.401Z,32.50
2018-06-08T11:37:24.132Z,33.90
2018-06-08T11:39:52.681Z,34.50
2018-06-08T11:42:21.244Z,33.70
2018-06-08T11:44:49.903Z,32.90
2018-06-08T11:47:19.449Z,32.80
2018-06-08T11:49:49.202Z,33.10
2018-06-08T11:52:19.214Z,33.30
2018-06-08T11:54:47.781Z,32.90
2018-06-08T11:57:16.434Z,32.90
2018-06-08T11:59:45.065Z,32.90
2018-06-08T12:04:41.943Z,33.40
2018-06-08T12:07:10.522Z,33.80
2018-06-08T12:09:39.425Z,34.00
2018-06-08T12:12:08.105Z,34.50
2018-06-08T12:14:36.785Z,35.00
2018-06-08T12:17:05.463Z,35.30
2018-06-08T12:22:03.505Z,35.30
2018-06-08T12:24:32.251Z,35.30
2018-06-08T12:27:00.950Z,35.20
2018-06-08T12:29:29.640Z,35.10
2018-06-08T12:31:58.232Z,35.20
2018-06-08T12:34:26.955Z,35.30
2018-06-08T12:36:55.781Z,35.60
2018-06-08T12:39:24.569Z,35.30
2018-06-08T12:41:53.154Z,34.90
2018-06-08T12:44:21.834Z,34.70
2018-06-08T12:46:50.478Z,34.90
2018-06-08T12:49:19.148Z,35.10
2018-06-08T12:51:47.741Z,35.10
2018-06-08T12:54:16.463Z,35.20
2018-06-08T12:56:45.139Z,35.60
2018-06-08T12:59:13.728Z,35.80
2018-06-08T13:01:42.337Z,35.90
2018-06-08T13:04:10.995Z,36.10
2018-06-08T13:06:39.699Z,36.00
2018-06-08T13:09:08.377Z,36.00
2018-06-08T13:11:36.977Z,36.00
2018-06-08T13:14:05.656Z,35.90
2018-06-08T13:16:34.242Z,36.20
2018-06-08T13:19:02.922Z,36.50
2018-06-08T13:21:31.591Z,36.60
2018-06-08T13:24:00.534Z,36.80
2018-06-08T13:26:29.161Z,37.00
2018-06-08T13:28:57.826Z,37.20
2018-06-08T13:33:56.925Z,37.10
